createdAt,value
2018-02-24T00:00:15.725Z,43.53
2018-02-24T00:02:43.198Z,40.83
2018-02-24T00:05:10.675Z,44.30
2018-02-24T00:07:38.162Z,40.77
2018-02-24T00:10:05.622Z,39.83
2018-02-24T00:12:33.085Z,42.00
2018-02-24T00:15:01.325Z,41.90
2018-02-24T00:17:28.789Z,45.20
2018-02-24T00:19:56.254Z,42.27
2018-02-24T00:22:23.718Z,43.30
2018-02-24T00:24:51.189Z,40.30
2018-02-24T00:27:18.657Z,44.80
2018-02-24T00:29:46.129Z,44.13
2018-02-24T00:32:14.363Z,40.60
2018-02-24T00:34:41.846Z,41.17
2018-02-24T00:37:10.086Z,41.43
2018-02-24T00:39:37.577Z,43.83
2018-02-24T00:42:05.052Z,42.50
2018-02-24T00:44:32.534Z,45.53
2018-02-24T00:47:00.008Z,43.17
2018-02-24T00:49:27.478Z,45.03
2018-02-24T00:51:54.939Z,43.60
2018-02-24T00:54:22.411Z,41.83
2018-02-24T00:56:49.882Z,42.17
2018-02-24T00:59:17.342Z,43.67
2018-02-24T01:01:45.569Z,45.50
2018-02-24T01:04:13.047Z,42.50
2018-02-24T01:06:40.514Z,44.23
2018-02-24T01:09:07.986Z,41.83
2018-02-24T01:11:36.215Z,45.47
2018-02-24T01:14:03.684Z,48.27
2018-02-24T01:16:31.763Z,44.93
2018-02-24T01:18:59.226Z,46.30
2018-02-24T01:21:26.686Z,45.07
2018-02-24T01:23:54.158Z,43.43
2018-02-24T01:26:21.630Z,44.53
2018-02-24T01:28:49.099Z,47.60
2018-02-24T01:31:16.570Z,47.17
2018-02-24T01:33:44.050Z,48.60
2018-02-24T01:36:11.538Z,49.23
2018-02-24T01:38:39.004Z,47.37
2018-02-24T01:41:07.254Z,47.37
2018-02-24T01:43:34.761Z,47.70
2018-02-24T01:46:02.996Z,45.60
2018-02-24T01:48:30.460Z,46.27
2018-02-24T01:50:57.943Z,45.87
2018-02-24T01:53:26.223Z,47.30
2018-02-24T01:55:54.471Z,45.23
2018-02-24T01:58:22.717Z,49.63
2018-02-24T02:00:50.185Z,51.53
2018-02-24T02:03:17.926Z,45.47
2018-02-24T02:05:45.394Z,45.53
2018-02-24T02:08:12.870Z,47.20
2018-02-24T02:10:40.344Z,48.77
2018-02-24T02:13:07.818Z,48.43
2018-02-24T02:15:36.044Z,47.77
2018-02-24T02:18:03.505Z,47.53
2018-02-24T02:20:30.978Z,48.90
2018-02-24T02:22:58.439Z,50.27
2018-02-24T02:25:25.915Z,50.23
2018-02-24T02:27:54.147Z,51.53
2018-02-24T02:30:21.626Z,49.33
2018-02-24T02:32:49.098Z,50.93
2018-02-24T02:35:16.571Z,49.00
2018-02-24T02:37:44.047Z,46.03
2018-02-24T02:40:11.512Z,47.03
2018-02-24T02:42:38.982Z,45.77
2018-02-24T02:45:06.447Z,50.57
2018-02-24T02:47:33.923Z,47.83
2018-02-24T02:50:01.396Z,43.67
2018-02-24T02:52:28.858Z,45.67
2018-02-24T02:54:57.098Z,45.93
2018-02-24T02:57:25.328Z,49.13
2018-02-24T02:59:52.804Z,45.83
2018-02-24T03:02:20.266Z,44.47
2018-02-24T03:04:47.763Z,45.83
2018-02-24T03:07:15.230Z,46.20
2018-02-24T03:09:43.475Z,47.10
2018-02-24T03:12:10.966Z,49.07
2018-02-24T03:14:38.418Z,46.57
2018-02-24T03:17:05.891Z,51.53
2018-02-24T03:19:34.130Z,42.03
2018-02-24T03:22:01.586Z,45.87
2018-02-24T03:24:29.050Z,47.00
2018-02-24T03:26:56.519Z,45.27
2018-02-24T03:29:23.985Z,44.70
2018-02-24T03:31:52.235Z,45.20
2018-02-24T03:34:19.707Z,49.33
2018-02-24T03:36:47.183Z,44.60
2018-02-24T03:39:14.706Z,43.87
2018-02-24T03:41:42.898Z,46.20
2018-02-24T03:44:10.367Z,43.77
2018-02-24T03:46:38.618Z,51.13
2018-02-24T03:49:06.090Z,49.60
2018-02-24T03:51:33.561Z,47.87
2018-02-24T03:54:01.023Z,48.80
2018-02-24T03:56:29.542Z,47.27
2018-02-24T03:58:57.014Z,46.13
2018-02-24T04:01:24.480Z,48.07
2018-02-24T04:03:51.955Z,48.23
2018-02-24T04:06:19.423Z,49.33
2018-02-24T04:08:46.896Z,51.03
2018-02-24T04:11:15.129Z,44.63
2018-02-24T04:13:42.602Z,51.57
2018-02-24T04:16:10.083Z,47.40
2018-02-24T04:18:38.309Z,54.50
2018-02-24T04:21:05.777Z,50.00
2018-02-24T04:23:33.515Z,50.53
2018-02-24T04:26:00.987Z,49.67
2018-02-24T04:28:28.462Z,51.00
2018-02-24T04:30:55.951Z,51.27
2018-02-24T04:33:24.185Z,50.80
2018-02-24T04:35:51.660Z,50.67
2018-02-24T04:38:19.126Z,46.60
2018-02-24T04:40:46.599Z,48.67
2018-02-24T04:43:14.839Z,55.57
2018-02-24T04:45:42.309Z,54.73
2018-02-24T04:48:09.766Z,51.97
2018-02-24T04:50:37.248Z,48.50
2018-02-24T04:53:05.489Z,53.77
2018-02-24T04:55:32.953Z,49.33
2018-02-24T04:58:00.424Z,48.03
2018-02-24T05:00:27.890Z,51.37
2018-02-24T05:02:56.121Z,53.13
2018-02-24T05:05:23.592Z,49.93
2018-02-24T05:07:51.066Z,50.67
2018-02-24T05:10:18.534Z,54.43
2018-02-24T05:12:46.791Z,50.93
2018-02-24T05:15:14.252Z,49.73
2018-02-24T05:17:41.730Z,53.67
2018-02-24T05:20:09.963Z,50.67
2018-02-24T05:22:37.430Z,50.93
2018-02-24T05:25:04.903Z,51.00
2018-02-24T05:27:32.361Z,48.70
2018-02-24T05:29:59.834Z,49.97
2018-02-24T05:32:28.063Z,56.53
2018-02-24T05:34:55.815Z,46.43
2018-02-24T05:37:23.274Z,51.63
2018-02-24T05:39:50.756Z,49.30
2018-02-24T05:42:18.224Z,51.20
2018-02-24T05:44:45.702Z,50.80
2018-02-24T05:47:13.946Z,53.00
2018-02-24T05:49:41.414Z,52.27
2018-02-24T05:52:08.885Z,55.00
2018-02-24T05:54:36.351Z,50.93
2018-02-24T05:57:04.586Z,51.23
2018-02-24T05:59:32.042Z,54.77
2018-02-24T06:02:00.282Z,52.00
2018-02-24T06:04:27.754Z,50.80
2018-02-24T06:06:55.224Z,55.07
2018-02-24T06:09:22.695Z,50.83
2018-02-24T06:11:50.154Z,48.97
2018-02-24T06:14:17.626Z,44.57
2018-02-24T06:16:45.095Z,49.77
2018-02-24T06:19:12.558Z,51.73
2018-02-24T06:21:40.030Z,46.87
2018-02-24T06:24:07.497Z,47.07
2018-02-24T06:26:34.968Z,52.17
2018-02-24T06:29:02.431Z,48.07
2018-02-24T06:31:29.902Z,49.90
2018-02-24T06:33:57.591Z,48.33
2018-02-24T06:36:25.064Z,49.30
2018-02-24T06:38:52.531Z,51.60
2018-02-24T06:41:20.769Z,49.47
2018-02-24T06:43:48.226Z,52.47
2018-02-24T06:46:15.699Z,52.00
2018-02-24T06:48:43.167Z,48.47
2018-02-24T06:51:11.402Z,46.97
2018-02-24T06:53:38.872Z,48.47
2018-02-24T06:56:06.366Z,47.23
2018-02-24T06:58:34.597Z,49.70
2018-02-24T07:01:02.062Z,46.87
2018-02-24T07:03:29.563Z,47.10
2018-02-24T07:05:57.034Z,47.03
2018-02-24T07:08:24.494Z,45.83
2018-02-24T07:10:51.998Z,42.03
2018-02-24T07:13:19.468Z,47.83
2018-02-24T07:15:46.947Z,45.40
2018-02-24T07:18:15.173Z,45.83
2018-02-24T07:20:42.644Z,44.63
2018-02-24T07:23:10.111Z,31.60
2018-02-24T07:25:37.574Z,48.63
2018-02-24T07:28:05.050Z,42.97
2018-02-24T07:30:33.270Z,42.33
2018-02-24T07:33:00.745Z,44.73
2018-02-24T07:35:28.219Z,44.30
2018-02-24T07:37:55.681Z,43.50
2018-02-24T07:40:23.925Z,46.87
2018-02-24T07:42:51.385Z,47.30
2018-02-24T07:45:18.866Z,49.13
2018-02-24T07:47:46.330Z,42.80
2018-02-24T07:50:14.576Z,44.83
2018-02-24T07:52:42.051Z,45.83
2018-02-24T07:55:09.526Z,41.87
2018-02-24T07:57:37.027Z,40.40
2018-02-24T08:00:04.520Z,38.80
2018-02-24T08:02:31.984Z,41.70
2018-02-24T08:04:59.459Z,47.07
2018-02-24T08:07:27.713Z,47.03
2018-02-24T08:09:55.958Z,42.00
2018-02-24T08:12:23.441Z,50.77
2018-02-24T08:14:50.925Z,52.10
2018-02-24T08:17:19.162Z,45.57
2018-02-24T08:19:46.628Z,45.13
2018-02-24T08:22:14.111Z,39.37
2018-02-24T08:24:42.358Z,43.00
2018-02-24T08:27:09.826Z,43.57
2018-02-24T08:29:37.308Z,45.50
2018-02-24T08:32:05.550Z,45.00
2018-02-24T08:34:33.027Z,45.97
2018-02-24T08:37:00.502Z,48.97
2018-02-24T08:39:28.731Z,40.93
2018-02-24T08:41:56.203Z,51.63
2018-02-24T08:44:23.672Z,42.93
2018-02-24T08:46:51.154Z,41.10
2018-02-24T08:49:18.622Z,41.53
2018-02-24T08:51:46.090Z,39.17
2018-02-24T08:54:13.573Z,39.50
2018-02-24T08:56:41.038Z,40.53
2018-02-24T08:59:08.510Z,41.33
2018-02-24T09:01:35.970Z,41.40
2018-02-24T09:04:03.442Z,41.30
2018-02-24T09:06:31.678Z,41.97
2018-02-24T09:08:59.138Z,38.77
2018-02-24T09:11:26.609Z,35.17
2018-02-24T09:13:54.075Z,39.53
2018-02-24T09:16:21.547Z,38.63
2018-02-24T09:18:49.776Z,38.43
2018-02-24T09:21:17.246Z,36.63
2018-02-24T09:23:44.710Z,38.23
2018-02-24T09:26:12.191Z,37.83
2018-02-24T09:28:39.677Z,37.27
2018-02-24T09:31:07.151Z,37.03
2018-02-24T09:33:34.642Z,39.63
2018-02-24T09:36:02.103Z,33.73
2018-02-24T09:38:29.595Z,34.37
2018-02-24T09:40:57.817Z,35.43
2018-02-24T09:43:26.066Z,37.87
2018-02-24T09:45:53.542Z,40.23
2018-02-24T09:48:21.001Z,35.10
2018-02-24T09:50:48.471Z,36.63
2018-02-24T09:53:16.226Z,36.63
2018-02-24T09:55:43.682Z,37.40
2018-02-24T09:58:11.145Z,31.77
2018-02-24T10:00:38.618Z,32.13
2018-02-24T10:03:06.083Z,30.33
2018-02-24T10:05:33.555Z,33.10
2018-02-24T10:08:01.046Z,30.33
2018-02-24T10:10:28.510Z,31.17
2018-02-24T10:12:55.990Z,28.10
2018-02-24T10:15:23.469Z,27.23
2018-02-24T10:17:50.948Z,30.90
2018-02-24T10:20:19.206Z,26.83
2018-02-24T10:22:47.460Z,29.73
2018-02-24T10:25:14.938Z,27.93
2018-02-24T10:27:42.398Z,29.13
2018-02-24T10:30:10.635Z,33.33
2018-02-24T10:32:38.098Z,23.80
2018-02-24T10:35:05.570Z,26.53
2018-02-24T10:37:33.042Z,27.20
2018-02-24T10:40:00.516Z,29.37
2018-02-24T10:42:27.995Z,25.33
2018-02-24T10:44:55.466Z,31.10
2018-02-24T10:47:22.934Z,24.70
2018-02-24T10:49:50.414Z,27.20
2018-02-24T10:52:17.874Z,28.53
2018-02-24T10:54:45.347Z,25.57
2018-02-24T10:57:13.589Z,28.07
2018-02-24T10:59:41.056Z,26.43
2018-02-24T11:02:08.538Z,26.07
2018-02-24T11:04:36.767Z,28.97
2018-02-24T11:07:04.241Z,25.23
2018-02-24T11:09:31.699Z,23.10
2018-02-24T11:11:59.174Z,27.40
2018-02-24T11:14:27.190Z,25.17
2018-02-24T11:16:54.671Z,27.07
2018-02-24T11:19:22.911Z,26.20
2018-02-24T11:21:50.420Z,23.03
2018-02-24T11:24:17.892Z,25.73
2018-02-24T11:26:45.359Z,26.77
2018-02-24T11:29:13.606Z,27.13
2018-02-24T11:31:41.075Z,24.37
2018-02-24T11:34:08.542Z,25.13
2018-02-24T11:36:36.016Z,24.90
2018-02-24T11:39:04.312Z,22.50
2018-02-24T11:41:31.808Z,22.73
2018-02-24T11:43:59.272Z,23.37
2018-02-24T11:46:26.771Z,27.13
2018-02-24T11:48:55.019Z,22.17
2018-02-24T11:51:22.494Z,26.20
2018-02-24T11:53:51.015Z,23.73
2018-02-24T11:56:18.493Z,24.37
2018-02-24T11:58:45.962Z,24.30
2018-02-24T12:01:13.429Z,21.43
2018-02-24T12:03:40.910Z,23.30
2018-02-24T12:06:09.141Z,23.97
2018-02-24T12:08:36.610Z,21.93
2018-02-24T12:11:04.090Z,24.13
2018-02-24T12:13:32.335Z,20.73
2018-02-24T12:15:59.798Z,23.30
2018-02-24T12:18:27.278Z,21.47
2018-02-24T12:20:55.520Z,20.77
2018-02-24T12:23:22.991Z,20.07
2018-02-24T12:25:50.460Z,21.40
2018-02-24T12:28:17.931Z,19.10
2018-02-24T12:30:46.452Z,22.83
2018-02-24T12:33:13.914Z,19.83
2018-02-24T12:35:41.382Z,21.43
2018-02-24T12:38:08.851Z,20.27
2018-02-24T12:40:36.327Z,18.83
2018-02-24T12:43:03.791Z,21.43
2018-02-24T12:45:31.267Z,19.30
2018-02-24T12:47:59.507Z,17.13
2018-02-24T12:50:26.994Z,19.73
2018-02-24T12:52:55.219Z,17.07
2018-02-24T12:55:22.692Z,18.10
2018-02-24T12:57:50.145Z,18.57
2018-02-24T13:00:17.620Z,15.17
2018-02-24T13:02:45.084Z,16.77
2018-02-24T13:05:12.553Z,16.83
2018-02-24T13:07:40.787Z,20.33
2018-02-24T13:10:08.260Z,21.37
2018-02-24T13:12:35.731Z,18.80
2018-02-24T13:15:03.183Z,17.13
2018-02-24T13:17:31.431Z,20.13
2018-02-24T13:19:58.899Z,18.70
2018-02-24T13:22:26.368Z,17.47
2018-02-24T13:24:54.623Z,20.30
2018-02-24T13:27:23.601Z,16.03
2018-02-24T13:29:51.066Z,17.47
2018-02-24T13:32:18.581Z,20.20
2018-02-24T13:34:46.014Z,20.40
2018-02-24T13:37:13.507Z,22.47
2018-02-24T13:39:40.982Z,19.87
2018-02-24T13:42:08.447Z,18.50
2018-02-24T13:44:35.926Z,17.47
2018-02-24T13:47:03.402Z,18.23
2018-02-24T13:49:30.895Z,19.57
2018-02-24T13:51:58.356Z,18.20
2018-02-24T13:54:26.091Z,18.03
2018-02-24T13:56:54.347Z,17.70
2018-02-24T13:59:21.810Z,20.73
2018-02-24T14:01:49.273Z,17.67
2018-02-24T14:04:16.735Z,18.80
2018-02-24T14:06:44.209Z,17.57
2018-02-24T14:09:12.440Z,18.83
2018-02-24T14:11:39.908Z,19.20
2018-02-24T14:14:07.368Z,16.53
2018-02-24T14:16:34.839Z,18.70
2018-02-24T14:19:03.075Z,19.33
2018-02-24T14:21:31.306Z,19.87
2018-02-24T14:23:59.542Z,20.33
2018-02-24T14:26:27.010Z,18.93
2018-02-24T14:28:54.491Z,19.07
2018-02-24T14:31:22.726Z,20.40
2018-02-24T14:33:51.047Z,18.63
2018-02-24T14:36:19.291Z,18.80
2018-02-24T14:38:46.754Z,20.67
2018-02-24T14:41:14.223Z,20.80
2018-02-24T14:43:42.744Z,20.30
2018-02-24T14:46:10.207Z,20.27
2018-02-24T14:48:37.671Z,25.33
2018-02-24T14:51:05.138Z,20.90
2018-02-24T14:53:32.611Z,19.87
2018-02-24T14:56:00.083Z,23.10
2018-02-24T14:58:27.538Z,19.33
2018-02-24T15:00:55.012Z,18.70
2018-02-24T15:03:23.246Z,19.33
2018-02-24T15:05:50.702Z,20.00
2018-02-24T15:08:18.173Z,18.33
2018-02-24T15:10:45.637Z,18.73
2018-02-24T15:13:13.102Z,19.43
2018-02-24T15:15:40.570Z,18.50
2018-02-24T15:18:08.805Z,16.77
2018-02-24T15:20:36.268Z,17.03
2018-02-24T15:23:03.753Z,17.93
2018-02-24T15:25:31.994Z,16.83
2018-02-24T15:27:59.462Z,19.47
2018-02-24T15:30:26.922Z,19.17
2018-02-24T15:32:56.220Z,18.80
2018-02-24T15:35:23.689Z,19.37
2018-02-24T15:37:51.181Z,19.57
2018-02-24T15:40:18.672Z,20.43
2018-02-24T15:42:46.492Z,18.73
2018-02-24T15:45:14.735Z,19.57
2018-02-24T15:47:42.259Z,18.63
2018-02-24T15:50:09.792Z,18.47
2018-02-24T15:52:38.036Z,18.20
2018-02-24T15:55:05.506Z,17.27
2018-02-24T15:57:33.751Z,20.97
2018-02-24T16:00:01.210Z,20.30
2018-02-24T16:02:28.680Z,19.97
2018-02-24T16:04:56.175Z,19.30
2018-02-24T16:07:24.478Z,18.33
2018-02-24T16:09:51.950Z,20.13
2018-02-24T16:12:19.411Z,22.07
2018-02-24T16:14:46.917Z,19.90
2018-02-24T16:17:15.147Z,18.03
2018-02-24T16:19:42.618Z,18.93
2018-02-24T16:22:10.160Z,21.60
2018-02-24T16:24:38.375Z,21.10
2018-02-24T16:27:06.603Z,18.47
2018-02-24T16:29:34.072Z,17.77
2018-02-24T16:32:01.539Z,18.70
2018-02-24T16:34:29.006Z,18.60
2018-02-24T16:36:56.466Z,18.60
2018-02-24T16:39:23.951Z,18.07
2018-02-24T16:41:51.430Z,18.00
2018-02-24T16:44:18.889Z,20.07
2018-02-24T16:46:46.404Z,18.03
2018-02-24T16:49:14.635Z,17.77
2018-02-24T16:51:42.106Z,16.73
2018-02-24T16:54:09.571Z,15.37
2018-02-24T16:56:37.047Z,17.27
2018-02-24T16:59:04.528Z,15.30
2018-02-24T17:01:32.012Z,17.13
2018-02-24T17:03:59.505Z,17.20
2018-02-24T17:06:26.975Z,19.80
2018-02-24T17:08:54.445Z,18.40
2018-02-24T17:11:21.924Z,17.60
2018-02-24T17:13:49.405Z,19.60
2018-02-24T17:16:16.871Z,17.50
2018-02-24T17:18:44.347Z,20.63
2018-02-24T17:21:11.814Z,23.63
2018-02-24T17:23:39.292Z,18.37
2018-02-24T17:26:07.531Z,19.97
2018-02-24T17:28:35.011Z,17.77
2018-02-24T17:31:02.477Z,18.10
2018-02-24T17:33:30.711Z,19.03
2018-02-24T17:35:58.170Z,17.37
2018-02-24T17:38:25.650Z,22.63
2018-02-24T17:40:53.110Z,19.53
2018-02-24T17:43:20.822Z,22.87
2018-02-24T17:45:48.323Z,23.13
2018-02-24T17:48:15.790Z,19.40
2018-02-24T17:50:43.260Z,19.73
2018-02-24T17:53:10.754Z,18.83
2018-02-24T17:55:38.222Z,17.63
2018-02-24T17:58:05.695Z,20.73
2018-02-24T18:00:33.166Z,20.10
2018-02-24T18:03:00.667Z,20.20
2018-02-24T18:05:28.138Z,21.87
2018-02-24T18:07:56.389Z,20.43
2018-02-24T18:10:24.622Z,23.03
2018-02-24T18:12:52.144Z,22.30
2018-02-24T18:15:19.606Z,20.50
2018-02-24T18:17:47.097Z,21.87
2018-02-24T18:20:14.558Z,22.90
2018-02-24T18:22:42.031Z,23.77
2018-02-24T18:25:09.491Z,23.13
2018-02-24T18:27:36.967Z,22.07
2018-02-24T18:30:04.436Z,18.63
2018-02-24T18:32:31.941Z,22.53
2018-02-24T18:34:59.394Z,24.63
2018-02-24T18:37:26.874Z,22.27
2018-02-24T18:39:54.341Z,22.53
2018-02-24T18:42:21.810Z,23.33
2018-02-24T18:44:50.038Z,22.47
2018-02-24T18:47:17.507Z,20.77
2018-02-24T18:49:44.983Z,22.87
2018-02-24T18:52:12.447Z,23.23
2018-02-24T18:54:40.687Z,29.50
2018-02-24T18:57:08.158Z,20.23
2018-02-24T18:59:35.638Z,21.50
2018-02-24T19:02:03.868Z,21.90
2018-02-24T19:04:31.615Z,24.63
2018-02-24T19:06:59.080Z,28.33
2018-02-24T19:09:26.556Z,26.07
2018-02-24T19:11:54.023Z,28.10
2018-02-24T19:14:21.493Z,24.60
2018-02-24T19:16:48.972Z,21.40
2018-02-24T19:19:17.222Z,21.30
2018-02-24T19:21:44.683Z,25.90
2018-02-24T19:24:12.154Z,20.13
2018-02-24T19:26:40.382Z,22.13
2018-02-24T19:29:07.855Z,28.40
2018-02-24T19:31:35.331Z,19.83
2018-02-24T19:34:02.794Z,20.80
2018-02-24T19:36:31.031Z,22.07
2018-02-24T19:38:58.491Z,19.60
2018-02-24T19:41:25.994Z,19.90
2018-02-24T19:43:54.218Z,20.50
2018-02-24T19:46:21.703Z,16.83
2018-02-24T19:48:49.170Z,22.87
2018-02-24T19:51:17.418Z,18.03
2018-02-24T19:53:44.886Z,18.67
2018-02-24T19:56:12.358Z,17.67
2018-02-24T19:58:40.600Z,19.50
2018-02-24T20:01:08.083Z,16.90
2018-02-24T20:03:35.546Z,19.70
2018-02-24T20:06:03.018Z,19.77
2018-02-24T20:08:31.266Z,18.80
2018-02-24T20:10:58.742Z,18.03
2018-02-24T20:13:26.210Z,17.10
2018-02-24T20:15:54.456Z,19.53
2018-02-24T20:18:21.926Z,18.37
2018-02-24T20:20:49.390Z,18.90
2018-02-24T20:23:17.618Z,15.93
2018-02-24T20:25:45.124Z,15.53
2018-02-24T20:28:13.361Z,20.47
2018-02-24T20:30:40.831Z,17.97
2018-02-24T20:33:08.325Z,17.37
2018-02-24T20:35:36.553Z,17.40
2018-02-24T20:38:04.088Z,15.30
2018-02-24T20:40:32.279Z,16.77
2018-02-24T20:42:59.752Z,21.77
2018-02-24T20:45:27.218Z,20.37
2018-02-24T20:47:54.720Z,18.47
2018-02-24T20:50:22.949Z,16.13
2018-02-24T20:52:50.422Z,17.20
2018-02-24T20:55:17.883Z,15.33
2018-02-24T20:57:46.123Z,15.97
2018-02-24T21:00:13.578Z,17.07
2018-02-24T21:02:41.043Z,19.43
2018-02-24T21:05:08.506Z,15.63
2018-02-24T21:07:35.970Z,16.63
2018-02-24T21:10:03.434Z,14.77
2018-02-24T21:12:30.920Z,15.50
2018-02-24T21:14:58.408Z,16.07
2018-02-24T21:17:25.880Z,18.27
2018-02-24T21:19:53.347Z,15.13
2018-02-24T21:22:20.811Z,15.33
2018-02-24T21:24:48.298Z,13.87
2018-02-24T21:27:16.527Z,16.57
2018-02-24T21:29:43.998Z,16.57
2018-02-24T21:32:11.452Z,13.80
2018-02-24T21:34:38.918Z,15.33
2018-02-24T21:37:06.394Z,16.77
2018-02-24T21:39:34.629Z,17.13
2018-02-24T21:42:02.095Z,14.00
2018-02-24T21:44:29.577Z,14.53
2018-02-24T21:46:57.042Z,13.83
2018-02-24T21:49:25.295Z,13.27
2018-02-24T21:51:53.156Z,9.60
2018-02-24T21:54:20.627Z,12.17
2018-02-24T21:56:48.095Z,13.43
2018-02-24T21:59:15.568Z,14.23
2018-02-24T22:01:43.787Z,13.63
2018-02-24T22:04:11.259Z,13.73
2018-02-24T22:06:38.724Z,13.60
2018-02-24T22:09:06.190Z,16.53
2018-02-24T22:11:33.657Z,13.87
2018-02-24T22:14:01.898Z,12.07
2018-02-24T22:16:29.359Z,15.63
2018-02-24T22:18:56.824Z,11.47
2018-02-24T22:21:24.290Z,12.43
2018-02-24T22:23:51.766Z,10.23
2018-02-24T22:26:19.997Z,8.73
2018-02-24T22:28:47.490Z,10.23
2018-02-24T22:31:14.970Z,13.03
2018-02-24T22:33:43.197Z,9.90
2018-02-24T22:36:10.694Z,13.17
2018-02-24T22:38:38.134Z,10.53
2018-02-24T22:41:06.378Z,8.47
2018-02-24T22:43:33.838Z,9.33
2018-02-24T22:46:01.314Z,10.13
2018-02-24T22:48:34.547Z,10.50
2018-02-24T22:51:02.027Z,8.23
2018-02-24T22:53:29.486Z,8.87
2018-02-24T22:55:56.958Z,8.10
2018-02-24T22:58:24.430Z,7.20
2018-02-24T23:00:51.891Z,9.77
2018-02-24T23:03:19.363Z,7.17
2018-02-24T23:05:47.635Z,8.63
2018-02-24T23:08:15.882Z,9.03
2018-02-24T23:10:43.342Z,8.30
2018-02-24T23:13:11.571Z,7.87
2018-02-24T23:15:39.036Z,8.17
2018-02-24T23:18:06.510Z,8.50
2018-02-24T23:20:33.970Z,9.87
2018-02-24T23:23:01.438Z,8.83
2018-02-24T23:25:28.895Z,9.13
2018-02-24T23:27:56.366Z,10.00
2018-02-24T23:30:23.842Z,8.40
2018-02-24T23:32:51.336Z,11.50
2018-02-24T23:35:18.819Z,7.23
2018-02-24T23:37:46.291Z,7.63
2018-02-24T23:40:13.751Z,10.00
2018-02-24T23:42:41.223Z,8.60
2018-02-24T23:45:08.677Z,9.07
2018-02-24T23:47:36.143Z,8.57
2018-02-24T23:50:03.619Z,12.47
2018-02-24T23:52:31.848Z,9.17
2018-02-24T23:54:59.319Z,12.07
2018-02-24T23:57:26.774Z,9.70
2018-02-24T23:59:54.251Z,12.77
